sensor_id;sensor_type;location;lat;lon;timestamp;temperature;humidity
7842;DHT22;3966;51.052;13.820;2022-10-31T00:00:49;10.80;99.90
7842;DHT22;3966;51.052;13.820;2022-10-31T00:03:16;10.70;99.90
7842;DHT22;3966;51.052;13.820;2022-10-31T00:05:43;10.70;99.90
7842;DHT22;3966;51.052;13.820;2022-10-31T00:08:09;10.80;99.90
7842;DHT22;3966;51.052;13.820;2022-10-31T00:10:40;10.80;99.90
7842;DHT22;3966;51.052;13.820;2022-10-31T00:13:07;10.80;99.90
7842;DHT22;3966;51.052;13.820;2022-10-31T00:15:33;10.70;99.90
7842;DHT22;3966;51.052;13.820;2022-10-31T00:17:59;10.70;99.90
7842;DHT22;3966;51.052;13.820;2022-10-31T00:20:25;10.70;99.90
7842;DHT22;3966;51.052;13.820;2022-10-31T00:22:50;10.70;99.90
7842;DHT22;3966;51.052;13.820;2022-10-31T00:25:16;10.70;99.90
7842;DHT22;3966;51.052;13.820;2022-10-31T00:27:41;10.60;99.90
7842;DHT22;3966;51.052;13.820;2022-10-31T00:30:07;10.70;99.90
7842;DHT22;3966;51.052;13.820;2022-10-31T00:32:33;10.60;99.90
7842;DHT22;3966;51.052;13.820;2022-10-31T00:34:58;10.60;99.90
7842;DHT22;3966;51.052;13.820;2022-10-31T00:37:24;10.70;99.90
7842;DHT22;3966;51.052;13.820;2022-10-31T00:39:49;10.70;99.90
7842;DHT22;3966;51.052;13.820;2022-10-31T00:42:15;10.60;99.90
7842;DHT22;3966;51.052;13.820;2022-10-31T00:44:41;10.60;99.90
7842;DHT22;3966;51.052;13.820;2022-10-31T00:47:06;10.60;99.90
7842;DHT22;3966;51.052;13.820;2022-10-31T00:49:32;10.60;99.90
7842;DHT22;3966;51.052;13.820;2022-10-31T00:51:57;10.50;99.90
7842;DHT22;3966;51.052;13.820;2022-10-31T00:54:23;10.50;99.90
7842;DHT22;3966;51.052;13.820;2022-10-31T00:56:48;10.60;99.90
7842;DHT22;3966;51.052;13.820;2022-10-31T00:59:14;10.50;99.90
7842;DHT22;3966;51.052;13.820;2022-10-31T01:01:39;10.50;99.90
7842;DHT22;3966;51.052;13.820;2022-10-31T01:04:05;10.50;99.90
7842;DHT22;3966;51.052;13.820;2022-10-31T01:06:30;10.50;99.90
7842;DHT22;3966;51.052;13.820;2022-10-31T01:08:56;10.40;99.90
7842;DHT22;3966;51.052;13.820;2022-10-31T01:11:22;10.40;99.90
7842;DHT22;3966;51.052;13.820;2022-10-31T01:13:51;10.40;99.90
7842;DHT22;3966;51.052;13.820;2022-10-31T01:16:18;10.30;99.90
7842;DHT22;3966;51.052;13.820;2022-10-31T01:18:44;10.30;99.90
7842;DHT22;3966;51.052;13.820;2022-10-31T01:21:18;10.20;99.90
7842;DHT22;3966;51.052;13.820;2022-10-31T01:23:44;10.10;99.90
7842;DHT22;3966;51.052;13.820;2022-10-31T01:26:33;10.20;99.90
7842;DHT22;3966;51.052;13.820;2022-10-31T01:29:01;10.10;99.90
7842;DHT22;3966;51.052;13.820;2022-10-31T01:31:29;10.20;99.90
7842;DHT22;3966;51.052;13.820;2022-10-31T01:33:56;10.20;99.90
7842;DHT22;3966;51.052;13.820;2022-10-31T01:36:25;10.20;99.90
7842;DHT22;3966;51.052;13.820;2022-10-31T01:38:53;10.20;99.90
7842;DHT22;3966;51.052;13.820;2022-10-31T01:41:22;10.20;99.90
7842;DHT22;3966;51.052;13.820;2022-10-31T01:43:54;10.10;99.90
7842;DHT22;3966;51.052;13.820;2022-10-31T01:46:25;10.10;99.90
7842;DHT22;3966;51.052;13.820;2022-10-31T01:48:53;10.10;99.90
7842;DHT22;3966;51.052;13.820;2022-10-31T01:51:22;10.10;99.90
7842;DHT22;3966;51.052;13.820;2022-10-31T01:53:50;10.10;99.90
7842;DHT22;3966;51.052;13.820;2022-10-31T01:56:17;10.10;99.90
7842;DHT22;3966;51.052;13.820;2022-10-31T01:58:44;10.10;99.90
7842;DHT22;3966;51.052;13.820;2022-10-31T02:01:12;10.10;99.90
7842;DHT22;3966;51.052;13.820;2022-10-31T02:03:38;10.10;99.90
7842;DHT22;3966;51.052;13.820;2022-10-31T02:06:07;10.10;99.90
7842;DHT22;3966;51.052;13.820;2022-10-31T02:08:37;10.10;99.90
7842;DHT22;3966;51.052;13.820;2022-10-31T02:11:03;10.10;99.90
7842;DHT22;3966;51.052;13.820;2022-10-31T02:13:29;10.10;99.90
7842;DHT22;3966;51.052;13.820;2022-10-31T02:15:57;10.00;99.90
7842;DHT22;3966;51.052;13.820;2022-10-31T02:18:24;10.00;99.90
7842;DHT22;3966;51.052;13.820;2022-10-31T02:21:29;10.00;99.90
7842;DHT22;3966;51.052;13.820;2022-10-31T02:27:21;10.00;99.90
7842;DHT22;3966;51.052;13.820;2022-10-31T02:30:33;10.00;99.90
7842;DHT22;3966;51.052;13.820;2022-10-31T02:33:00;10.00;99.90
7842;DHT22;3966;51.052;13.820;2022-10-31T02:35:39;10.00;99.90
7842;DHT22;3966;51.052;13.820;2022-10-31T02:43:53;9.90;99.90
7842;DHT22;3966;51.052;13.820;2022-10-31T02:46:47;9.80;99.90
7842;DHT22;3966;51.052;13.820;2022-10-31T02:51:52;9.80;99.90
7842;DHT22;3966;51.052;13.820;2022-10-31T02:54:21;9.80;99.90
7842;DHT22;3966;51.052;13.820;2022-10-31T02:56:49;9.80;99.90
7842;DHT22;3966;51.052;13.820;2022-10-31T02:59:15;9.80;99.90
7842;DHT22;3966;51.052;13.820;2022-10-31T03:02:22;9.80;99.90
7842;DHT22;3966;51.052;13.820;2022-10-31T03:05:04;9.70;99.90
7842;DHT22;3966;51.052;13.820;2022-10-31T03:13:49;9.70;99.90
7842;DHT22;3966;51.052;13.820;2022-10-31T03:16:37;9.70;99.90
7842;DHT22;3966;51.052;13.820;2022-10-31T03:19:08;9.70;99.90
7842;DHT22;3966;51.052;13.820;2022-10-31T03:21:52;9.60;99.90
7842;DHT22;3966;51.052;13.820;2022-10-31T03:24:20;9.70;99.90
7842;DHT22;3966;51.052;13.820;2022-10-31T03:26:50;9.70;99.90
7842;DHT22;3966;51.052;13.820;2022-10-31T03:29:20;9.60;99.90
7842;DHT22;3966;51.052;13.820;2022-10-31T03:32:04;9.60;99.90
7842;DHT22;3966;51.052;13.820;2022-10-31T03:34:30;9.60;99.90
7842;DHT22;3966;51.052;13.820;2022-10-31T03:36:59;9.60;99.90
7842;DHT22;3966;51.052;13.820;2022-10-31T03:39:27;9.60;99.90
7842;DHT22;3966;51.052;13.820;2022-10-31T03:41:56;9.60;99.90
7842;DHT22;3966;51.052;13.820;2022-10-31T03:44:23;9.60;99.90
7842;DHT22;3966;51.052;13.820;2022-10-31T03:46:49;9.60;99.90
7842;DHT22;3966;51.052;13.820;2022-10-31T03:49:15;9.50;99.90
7842;DHT22;3966;51.052;13.820;2022-10-31T03:51:54;9.50;99.90
7842;DHT22;3966;51.052;13.820;2022-10-31T03:59:44;9.50;99.90
7842;DHT22;3966;51.052;13.820;2022-10-31T04:02:15;9.40;99.90
7842;DHT22;3966;51.052;13.820;2022-10-31T04:04:43;9.40;99.90
7842;DHT22;3966;51.052;13.820;2022-10-31T04:07:10;9.40;99.90
7842;DHT22;3966;51.052;13.820;2022-10-31T04:09:38;9.40;99.90
7842;DHT22;3966;51.052;13.820;2022-10-31T04:12:07;9.40;99.90
7842;DHT22;3966;51.052;13.820;2022-10-31T04:14:38;9.40;99.90
7842;DHT22;3966;51.052;13.820;2022-10-31T04:17:07;9.30;99.90
7842;DHT22;3966;51.052;13.820;2022-10-31T04:19:34;9.30;99.90
7842;DHT22;3966;51.052;13.820;2022-10-31T04:22:00;9.30;99.90
7842;DHT22;3966;51.052;13.820;2022-10-31T04:24:26;9.30;99.90
7842;DHT22;3966;51.052;13.820;2022-10-31T04:26:51;9.30;99.90
7842;DHT22;3966;51.052;13.820;2022-10-31T04:29:17;9.30;99.90
7842;DHT22;3966;51.052;13.820;2022-10-31T04:31:42;9.20;99.90
7842;DHT22;3966;51.052;13.820;2022-10-31T04:34:08;9.20;99.90
7842;DHT22;3966;51.052;13.820;2022-10-31T04:36:33;9.20;99.90
7842;DHT22;3966;51.052;13.820;2022-10-31T04:38:59;9.20;99.90
7842;DHT22;3966;51.052;13.820;2022-10-31T04:41:25;9.20;99.90
7842;DHT22;3966;51.052;13.820;2022-10-31T04:43:50;9.20;99.90
7842;DHT22;3966;51.052;13.820;2022-10-31T04:46:16;9.10;99.90
7842;DHT22;3966;51.052;13.820;2022-10-31T04:48:41;9.10;99.90
7842;DHT22;3966;51.052;13.820;2022-10-31T04:51:07;9.10;99.90
7842;DHT22;3966;51.052;13.820;2022-10-31T04:53:32;9.10;99.90
7842;DHT22;3966;51.052;13.820;2022-10-31T04:55:58;9.10;99.90
7842;DHT22;3966;51.052;13.820;2022-10-31T04:58:25;9.10;99.90
7842;DHT22;3966;51.052;13.820;2022-10-31T05:00:54;9.00;99.90
7842;DHT22;3966;51.052;13.820;2022-10-31T05:03:20;9.10;99.90
7842;DHT22;3966;51.052;13.820;2022-10-31T05:05:45;9.10;99.90
7842;DHT22;3966;51.052;13.820;2022-10-31T05:08:11;9.10;99.90
7842;DHT22;3966;51.052;13.820;2022-10-31T05:10:37;9.10;99.90
7842;DHT22;3966;51.052;13.820;2022-10-31T05:13:03;9.00;99.90
7842;DHT22;3966;51.052;13.820;2022-10-31T05:15:29;9.00;99.90
7842;DHT22;3966;51.052;13.820;2022-10-31T05:17:55;9.00;99.90
7842;DHT22;3966;51.052;13.820;2022-10-31T05:20:27;9.00;99.90
7842;DHT22;3966;51.052;13.820;2022-10-31T05:22:55;9.00;99.90
7842;DHT22;3966;51.052;13.820;2022-10-31T05:25:22;9.00;99.90
7842;DHT22;3966;51.052;13.820;2022-10-31T05:27:49;9.00;99.90
7842;DHT22;3966;51.052;13.820;2022-10-31T05:30:21;8.90;99.90
7842;DHT22;3966;51.052;13.820;2022-10-31T05:32:48;9.00;99.90
7842;DHT22;3966;51.052;13.820;2022-10-31T05:35:50;8.90;99.90
7842;DHT22;3966;51.052;13.820;2022-10-31T05:38:08;8.90;99.90
7842;DHT22;3966;51.052;13.820;2022-10-31T05:40:34;8.90;99.90
7842;DHT22;3966;51.052;13.820;2022-10-31T05:42:59;8.90;99.90
7842;DHT22;3966;51.052;13.820;2022-10-31T05:45:25;8.90;99.90
7842;DHT22;3966;51.052;13.820;2022-10-31T05:47:51;8.90;99.90
7842;DHT22;3966;51.052;13.820;2022-10-31T05:50:18;8.90;99.90
7842;DHT22;3966;51.052;13.820;2022-10-31T05:52:43;8.90;99.90
7842;DHT22;3966;51.052;13.820;2022-10-31T05:55:09;8.90;99.90
7842;DHT22;3966;51.052;13.820;2022-10-31T05:57:34;8.80;99.90
7842;DHT22;3966;51.052;13.820;2022-10-31T06:00:00;8.80;99.90
7842;DHT22;3966;51.052;13.820;2022-10-31T06:02:26;8.80;99.90
7842;DHT22;3966;51.052;13.820;2022-10-31T06:04:52;8.80;99.90
7842;DHT22;3966;51.052;13.820;2022-10-31T06:07:17;8.80;99.90
7842;DHT22;3966;51.052;13.820;2022-10-31T06:09:43;8.80;99.90
7842;DHT22;3966;51.052;13.820;2022-10-31T06:12:09;8.80;99.90
7842;DHT22;3966;51.052;13.820;2022-10-31T06:14:34;8.80;99.90
7842;DHT22;3966;51.052;13.820;2022-10-31T06:16:59;8.80;99.90
7842;DHT22;3966;51.052;13.820;2022-10-31T06:19:25;8.80;99.90
7842;DHT22;3966;51.052;13.820;2022-10-31T06:21:50;8.80;99.90
7842;DHT22;3966;51.052;13.820;2022-10-31T06:24:16;8.80;99.90
7842;DHT22;3966;51.052;13.820;2022-10-31T06:26:42;8.80;99.90
7842;DHT22;3966;51.052;13.820;2022-10-31T06:29:07;8.90;99.90
7842;DHT22;3966;51.052;13.820;2022-10-31T06:31:33;8.90;99.90
7842;DHT22;3966;51.052;13.820;2022-10-31T06:33:58;8.80;99.90
7842;DHT22;3966;51.052;13.820;2022-10-31T06:36:24;8.90;99.90
7842;DHT22;3966;51.052;13.820;2022-10-31T06:38:49;8.90;99.90
7842;DHT22;3966;51.052;13.820;2022-10-31T06:41:15;8.90;99.90
7842;DHT22;3966;51.052;13.820;2022-10-31T06:43:40;8.90;99.90
7842;DHT22;3966;51.052;13.820;2022-10-31T06:46:06;8.90;99.90
7842;DHT22;3966;51.052;13.820;2022-10-31T06:48:32;8.90;99.90
7842;DHT22;3966;51.052;13.820;2022-10-31T06:51:01;8.90;99.90
7842;DHT22;3966;51.052;13.820;2022-10-31T06:53:27;8.90;99.90
7842;DHT22;3966;51.052;13.820;2022-10-31T06:55:55;9.00;99.90
7842;DHT22;3966;51.052;13.820;2022-10-31T06:58:21;9.00;99.90
7842;DHT22;3966;51.052;13.820;2022-10-31T07:00:46;9.00;99.90
7842;DHT22;3966;51.052;13.820;2022-10-31T07:03:13;9.00;99.90
7842;DHT22;3966;51.052;13.820;2022-10-31T07:05:39;9.10;99.90
7842;DHT22;3966;51.052;13.820;2022-10-31T07:08:07;9.10;99.90
7842;DHT22;3966;51.052;13.820;2022-10-31T07:10:35;9.20;99.90
7842;DHT22;3966;51.052;13.820;2022-10-31T07:13:03;9.30;99.90
7842;DHT22;3966;51.052;13.820;2022-10-31T07:15:32;9.30;99.90
7842;DHT22;3966;51.052;13.820;2022-10-31T07:18:03;9.40;99.90
7842;DHT22;3966;51.052;13.820;2022-10-31T07:20:29;9.40;99.90
7842;DHT22;3966;51.052;13.820;2022-10-31T07:22:55;9.40;99.90
7842;DHT22;3966;51.052;13.820;2022-10-31T07:25:21;9.40;99.90
7842;DHT22;3966;51.052;13.820;2022-10-31T07:27:47;9.50;99.90
7842;DHT22;3966;51.052;13.820;2022-10-31T07:30:13;9.50;99.90
7842;DHT22;3966;51.052;13.820;2022-10-31T07:32:50;9.60;99.90
7842;DHT22;3966;51.052;13.820;2022-10-31T07:35:20;9.60;99.90
7842;DHT22;3966;51.052;13.820;2022-10-31T07:37:46;9.60;99.90
7842;DHT22;3966;51.052;13.820;2022-10-31T07:40:12;9.70;99.90
7842;DHT22;3966;51.052;13.820;2022-10-31T07:42:39;9.70;99.90
7842;DHT22;3966;51.052;13.820;2022-10-31T07:45:07;9.80;99.90
7842;DHT22;3966;51.052;13.820;2022-10-31T07:47:40;9.80;99.90
7842;DHT22;3966;51.052;13.820;2022-10-31T07:50:06;9.90;99.90
7842;DHT22;3966;51.052;13.820;2022-10-31T07:52:32;9.90;99.90
7842;DHT22;3966;51.052;13.820;2022-10-31T07:54:57;10.00;99.90
7842;DHT22;3966;51.052;13.820;2022-10-31T07:57:23;10.00;99.90
7842;DHT22;3966;51.052;13.820;2022-10-31T07:59:48;10.10;99.90
7842;DHT22;3966;51.052;13.820;2022-10-31T08:02:15;10.20;99.90
7842;DHT22;3966;51.052;13.820;2022-10-31T08:05:15;10.40;99.90
7842;DHT22;3966;51.052;13.820;2022-10-31T08:07:41;10.60;99.90
7842;DHT22;3966;51.052;13.820;2022-10-31T08:10:07;10.60;99.90
7842;DHT22;3966;51.052;13.820;2022-10-31T08:12:32;10.60;99.90
7842;DHT22;3966;51.052;13.820;2022-10-31T08:14:58;10.70;99.90
7842;DHT22;3966;51.052;13.820;2022-10-31T08:17:23;10.80;99.90
7842;DHT22;3966;51.052;13.820;2022-10-31T08:19:49;10.90;99.90
7842;DHT22;3966;51.052;13.820;2022-10-31T08:22:14;10.90;99.90
7842;DHT22;3966;51.052;13.820;2022-10-31T08:24:40;10.90;99.90
7842;DHT22;3966;51.052;13.820;2022-10-31T08:27:05;10.90;99.90
7842;DHT22;3966;51.052;13.820;2022-10-31T08:29:31;11.00;99.90
7842;DHT22;3966;51.052;13.820;2022-10-31T08:31:57;11.10;99.90
7842;DHT22;3966;51.052;13.820;2022-10-31T08:34:24;11.30;99.90
7842;DHT22;3966;51.052;13.820;2022-10-31T08:36:49;11.40;99.90
7842;DHT22;3966;51.052;13.820;2022-10-31T08:39:15;11.60;99.90
7842;DHT22;3966;51.052;13.820;2022-10-31T08:41:43;11.70;99.90
7842;DHT22;3966;51.052;13.820;2022-10-31T08:44:08;11.90;99.90
7842;DHT22;3966;51.052;13.820;2022-10-31T08:46:34;12.00;99.90
7842;DHT22;3966;51.052;13.820;2022-10-31T08:49:01;12.10;99.90
7842;DHT22;3966;51.052;13.820;2022-10-31T08:51:26;12.20;99.90
7842;DHT22;3966;51.052;13.820;2022-10-31T08:53:52;12.30;99.90
7842;DHT22;3966;51.052;13.820;2022-10-31T08:56:19;12.50;99.90
7842;DHT22;3966;51.052;13.820;2022-10-31T08:58:44;12.60;99.90
7842;DHT22;3966;51.052;13.820;2022-10-31T09:01:10;12.70;99.90
7842;DHT22;3966;51.052;13.820;2022-10-31T09:03:35;12.80;99.90
7842;DHT22;3966;51.052;13.820;2022-10-31T09:06:02;13.00;99.90
7842;DHT22;3966;51.052;13.820;2022-10-31T09:08:32;13.10;99.90
7842;DHT22;3966;51.052;13.820;2022-10-31T09:10:58;13.20;99.90
7842;DHT22;3966;51.052;13.820;2022-10-31T09:13:24;13.40;99.90
7842;DHT22;3966;51.052;13.820;2022-10-31T09:15:50;13.50;99.90
7842;DHT22;3966;51.052;13.820;2022-10-31T09:18:18;13.70;99.90
7842;DHT22;3966;51.052;13.820;2022-10-31T09:20:45;13.90;99.90
7842;DHT22;3966;51.052;13.820;2022-10-31T09:23:19;14.00;99.90
7842;DHT22;3966;51.052;13.820;2022-10-31T09:25:46;14.20;99.90
7842;DHT22;3966;51.052;13.820;2022-10-31T09:28:15;14.30;99.90
7842;DHT22;3966;51.052;13.820;2022-10-31T09:30:41;14.40;99.90
7842;DHT22;3966;51.052;13.820;2022-10-31T09:33:10;14.60;99.90
7842;DHT22;3966;51.052;13.820;2022-10-31T09:35:36;14.70;99.90
7842;DHT22;3966;51.052;13.820;2022-10-31T09:38:10;14.90;99.90
7842;DHT22;3966;51.052;13.820;2022-10-31T09:40:41;15.10;99.90
7842;DHT22;3966;51.052;13.820;2022-10-31T09:43:39;15.20;99.90
7842;DHT22;3966;51.052;13.820;2022-10-31T09:52:33;15.70;99.90
7842;DHT22;3966;51.052;13.820;2022-10-31T09:55:02;15.90;99.90
7842;DHT22;3966;51.052;13.820;2022-10-31T09:57:32;15.90;99.90
7842;DHT22;3966;51.052;13.820;2022-10-31T09:59:59;15.90;99.90
7842;DHT22;3966;51.052;13.820;2022-10-31T10:02:49;16.00;99.90
7842;DHT22;3966;51.052;13.820;2022-10-31T10:05:49;16.10;99.90
7842;DHT22;3966;51.052;13.820;2022-10-31T10:08:19;16.00;99.90
7842;DHT22;3966;51.052;13.820;2022-10-31T10:13:32;16.10;99.90
7842;DHT22;3966;51.052;13.820;2022-10-31T10:18:43;16.40;99.90
7842;DHT22;3966;51.052;13.820;2022-10-31T10:24:17;17.20;99.90
7842;DHT22;3966;51.052;13.820;2022-10-31T10:26:53;17.60;99.90
7842;DHT22;3966;51.052;13.820;2022-10-31T10:29:53;18.10;99.90
7842;DHT22;3966;51.052;13.820;2022-10-31T10:32:27;18.40;99.90
7842;DHT22;3966;51.052;13.820;2022-10-31T10:35:15;18.40;99.90
7842;DHT22;3966;51.052;13.820;2022-10-31T10:37:45;18.70;99.90
7842;DHT22;3966;51.052;13.820;2022-10-31T10:40:19;19.10;99.90
7842;DHT22;3966;51.052;13.820;2022-10-31T10:43:00;19.30;99.90
7842;DHT22;3966;51.052;13.820;2022-10-31T10:54:41;19.00;99.90
7842;DHT22;3966;51.052;13.820;2022-10-31T10:59:34;18.60;99.90
7842;DHT22;3966;51.052;13.820;2022-10-31T11:02:00;18.50;99.90
7842;DHT22;3966;51.052;13.820;2022-10-31T11:04:32;18.10;99.90
7842;DHT22;3966;51.052;13.820;2022-10-31T11:07:04;18.10;99.90
7842;DHT22;3966;51.052;13.820;2022-10-31T11:09:39;18.20;99.90
7842;DHT22;3966;51.052;13.820;2022-10-31T11:12:06;18.30;99.90
7842;DHT22;3966;51.052;13.820;2022-10-31T11:14:46;18.50;99.90
7842;DHT22;3966;51.052;13.820;2022-10-31T11:17:30;18.40;99.90
7842;DHT22;3966;51.052;13.820;2022-10-31T11:22:38;18.90;99.90
7842;DHT22;3966;51.052;13.820;2022-10-31T11:27:44;19.30;99.90
7842;DHT22;3966;51.052;13.820;2022-10-31T11:30:12;19.50;99.90
7842;DHT22;3966;51.052;13.820;2022-10-31T11:32:49;19.60;99.90
7842;DHT22;3966;51.052;13.820;2022-10-31T11:35:21;19.70;99.90
7842;DHT22;3966;51.052;13.820;2022-10-31T11:37:49;19.80;99.90
7842;DHT22;3966;51.052;13.820;2022-10-31T11:40:18;19.80;99.90
7842;DHT22;3966;51.052;13.820;2022-10-31T11:42:45;20.10;99.90
7842;DHT22;3966;51.052;13.820;2022-10-31T11:45:32;20.40;99.90
7842;DHT22;3966;51.052;13.820;2022-10-31T11:47:59;20.50;99.90
7842;DHT22;3966;51.052;13.820;2022-10-31T11:50:39;20.60;99.90
7842;DHT22;3966;51.052;13.820;2022-10-31T11:53:15;20.50;99.90
7842;DHT22;3966;51.052;13.820;2022-10-31T11:55:41;20.50;99.90
7842;DHT22;3966;51.052;13.820;2022-10-31T11:58:26;20.50;99.90
7842;DHT22;3966;51.052;13.820;2022-10-31T12:00:54;20.60;99.90
7842;DHT22;3966;51.052;13.820;2022-10-31T12:05:48;21.50;99.90
7842;DHT22;3966;51.052;13.820;2022-10-31T12:08:14;21.90;99.90
7842;DHT22;3966;51.052;13.820;2022-10-31T12:11:06;22.10;99.90
7842;DHT22;3966;51.052;13.820;2022-10-31T12:14:19;22.30;99.90
7842;DHT22;3966;51.052;13.820;2022-10-31T12:16:34;22.70;99.90
7842;DHT22;3966;51.052;13.820;2022-10-31T12:19:19;22.90;99.90
7842;DHT22;3966;51.052;13.820;2022-10-31T12:22:05;22.60;99.90
7842;DHT22;3966;51.052;13.820;2022-10-31T12:35:19;20.90;99.90
7842;DHT22;3966;51.052;13.820;2022-10-31T12:38:04;20.90;99.90
7842;DHT22;3966;51.052;13.820;2022-10-31T12:43:20;21.90;99.90
7842;DHT22;3966;51.052;13.820;2022-10-31T12:45:59;22.20;99.90
7842;DHT22;3966;51.052;13.820;2022-10-31T12:48:52;22.60;99.90
7842;DHT22;3966;51.052;13.820;2022-10-31T12:51:37;22.60;99.90
7842;DHT22;3966;51.052;13.820;2022-10-31T12:54:22;22.30;99.90
7842;DHT22;3966;51.052;13.820;2022-10-31T12:59:44;23.30;99.90
7842;DHT22;3966;51.052;13.820;2022-10-31T13:02:18;23.90;99.90
7842;DHT22;3966;51.052;13.820;2022-10-31T13:10:00;22.40;99.90
7842;DHT22;3966;51.052;13.820;2022-10-31T13:12:28;22.30;99.90
7842;DHT22;3966;51.052;13.820;2022-10-31T13:14:58;22.20;99.90
7842;DHT22;3966;51.052;13.820;2022-10-31T13:17:33;22.40;99.90
7842;DHT22;3966;51.052;13.820;2022-10-31T13:20:12;22.90;99.90
7842;DHT22;3966;51.052;13.820;2022-10-31T13:22:39;23.30;99.90
7842;DHT22;3966;51.052;13.820;2022-10-31T13:25:24;23.70;99.90
7842;DHT22;3966;51.052;13.820;2022-10-31T13:28:03;23.70;99.90
7842;DHT22;3966;51.052;13.820;2022-10-31T13:30:37;22.60;99.90
7842;DHT22;3966;51.052;13.820;2022-10-31T13:33:19;22.40;99.90
7842;DHT22;3966;51.052;13.820;2022-10-31T13:35:53;22.30;99.90
7842;DHT22;3966;51.052;13.820;2022-10-31T13:46:43;22.70;99.90
7842;DHT22;3966;51.052;13.820;2022-10-31T13:52:05;23.00;99.90
7842;DHT22;3966;51.052;13.820;2022-10-31T13:54:33;22.80;99.90
7842;DHT22;3966;51.052;13.820;2022-10-31T13:56:59;22.50;99.90
7842;DHT22;3966;51.052;13.820;2022-10-31T13:59:27;22.40;99.90
7842;DHT22;3966;51.052;13.820;2022-10-31T14:01:58;22.10;99.90
7842;DHT22;3966;51.052;13.820;2022-10-31T14:07:16;22.10;99.90
7842;DHT22;3966;51.052;13.820;2022-10-31T14:09:55;22.40;99.90
7842;DHT22;3966;51.052;13.820;2022-10-31T14:15:03;22.40;99.90
7842;DHT22;3966;51.052;13.820;2022-10-31T14:17:44;22.50;99.90
7842;DHT22;3966;51.052;13.820;2022-10-31T14:22:39;22.10;99.90
7842;DHT22;3966;51.052;13.820;2022-10-31T14:25:28;21.90;99.90
7842;DHT22;3966;51.052;13.820;2022-10-31T14:27:54;21.90;99.90
7842;DHT22;3966;51.052;13.820;2022-10-31T14:30:22;21.90;99.90
7842;DHT22;3966;51.052;13.820;2022-10-31T14:32:52;22.00;99.90
7842;DHT22;3966;51.052;13.820;2022-10-31T14:35:20;22.10;99.90
7842;DHT22;3966;51.052;13.820;2022-10-31T14:38:08;22.50;99.90
7842;DHT22;3966;51.052;13.820;2022-10-31T14:40:48;22.70;99.90
7842;DHT22;3966;51.052;13.820;2022-10-31T14:43:35;22.90;99.90
7842;DHT22;3966;51.052;13.820;2022-10-31T14:51:59;22.60;99.90
7842;DHT22;3966;51.052;13.820;2022-10-31T14:54:30;22.30;99.90
7842;DHT22;3966;51.052;13.820;2022-10-31T14:57:04;21.70;99.90
7842;DHT22;3966;51.052;13.820;2022-10-31T14:59:35;21.20;99.90
7842;DHT22;3966;51.052;13.820;2022-10-31T15:02:15;21.00;99.90
7842;DHT22;3966;51.052;13.820;2022-10-31T15:04:44;20.70;99.90
7842;DHT22;3966;51.052;13.820;2022-10-31T15:07:17;20.40;99.90
7842;DHT22;3966;51.052;13.820;2022-10-31T15:09:43;20.30;99.90
7842;DHT22;3966;51.052;13.820;2022-10-31T15:12:23;20.10;99.90
7842;DHT22;3966;51.052;13.820;2022-10-31T15:14:49;19.90;99.90
7842;DHT22;3966;51.052;13.820;2022-10-31T15:17:15;19.70;99.90
7842;DHT22;3966;51.052;13.820;2022-10-31T15:19:42;19.50;99.90
7842;DHT22;3966;51.052;13.820;2022-10-31T15:22:14;19.30;99.90
7842;DHT22;3966;51.052;13.820;2022-10-31T15:24:41;19.20;99.90
7842;DHT22;3966;51.052;13.820;2022-10-31T15:27:13;19.00;99.90
7842;DHT22;3966;51.052;13.820;2022-10-31T15:29:50;18.70;99.90
7842;DHT22;3966;51.052;13.820;2022-10-31T15:32:27;18.50;99.90
7842;DHT22;3966;51.052;13.820;2022-10-31T15:34:54;18.30;99.90
7842;DHT22;3966;51.052;13.820;2022-10-31T15:37:22;18.20;99.90
7842;DHT22;3966;51.052;13.820;2022-10-31T15:39:50;18.00;99.90
7842;DHT22;3966;51.052;13.820;2022-10-31T15:42:28;17.90;99.90
7842;DHT22;3966;51.052;13.820;2022-10-31T15:47:36;17.50;99.90
7842;DHT22;3966;51.052;13.820;2022-10-31T15:50:05;17.40;99.90
7842;DHT22;3966;51.052;13.820;2022-10-31T15:52:44;17.30;99.90
7842;DHT22;3966;51.052;13.820;2022-10-31T15:55:21;17.20;99.90
7842;DHT22;3966;51.052;13.820;2022-10-31T15:58:11;17.10;99.90
7842;DHT22;3966;51.052;13.820;2022-10-31T16:00:38;16.90;99.90
7842;DHT22;3966;51.052;13.820;2022-10-31T16:05:37;16.70;99.90
7842;DHT22;3966;51.052;13.820;2022-10-31T16:08:04;16.70;99.90
7842;DHT22;3966;51.052;13.820;2022-10-31T16:10:33;16.60;99.90
7842;DHT22;3966;51.052;13.820;2022-10-31T16:13:00;16.60;99.90
7842;DHT22;3966;51.052;13.820;2022-10-31T16:15:27;16.60;99.90
7842;DHT22;3966;51.052;13.820;2022-10-31T16:17:52;16.70;99.90
7842;DHT22;3966;51.052;13.820;2022-10-31T16:20:29;16.80;99.90
7842;DHT22;3966;51.052;13.820;2022-10-31T16:22:57;16.90;99.90
7842;DHT22;3966;51.052;13.820;2022-10-31T16:25:27;17.00;99.90
7842;DHT22;3966;51.052;13.820;2022-10-31T16:27:58;17.00;99.90
7842;DHT22;3966;51.052;13.820;2022-10-31T16:30:38;16.80;99.90
7842;DHT22;3966;51.052;13.820;2022-10-31T16:33:24;16.60;99.90
7842;DHT22;3966;51.052;13.820;2022-10-31T16:35:54;16.40;99.90
7842;DHT22;3966;51.052;13.820;2022-10-31T16:38:21;16.20;99.90
7842;DHT22;3966;51.052;13.820;2022-10-31T16:40:47;16.10;99.90
7842;DHT22;3966;51.052;13.820;2022-10-31T16:43:17;16.00;99.90
7842;DHT22;3966;51.052;13.820;2022-10-31T16:45:46;15.90;99.90
7842;DHT22;3966;51.052;13.820;2022-10-31T16:48:14;15.90;99.90
7842;DHT22;3966;51.052;13.820;2022-10-31T16:50:43;15.80;99.90
7842;DHT22;3966;51.052;13.820;2022-10-31T16:53:10;15.70;99.90
7842;DHT22;3966;51.052;13.820;2022-10-31T16:55:45;15.70;99.90
7842;DHT22;3966;51.052;13.820;2022-10-31T16:58:34;15.60;99.90
7842;DHT22;3966;51.052;13.820;2022-10-31T17:01:02;15.50;99.90
7842;DHT22;3966;51.052;13.820;2022-10-31T17:03:29;15.50;99.90
7842;DHT22;3966;51.052;13.820;2022-10-31T17:05:55;15.40;99.90
7842;DHT22;3966;51.052;13.820;2022-10-31T17:08:21;15.30;99.90
7842;DHT22;3966;51.052;13.820;2022-10-31T17:10:49;15.20;99.90
7842;DHT22;3966;51.052;13.820;2022-10-31T17:13:20;15.10;99.90
7842;DHT22;3966;51.052;13.820;2022-10-31T17:15:49;15.10;99.90
7842;DHT22;3966;51.052;13.820;2022-10-31T17:18:16;15.00;99.90
7842;DHT22;3966;51.052;13.820;2022-10-31T17:20:42;15.00;99.90
7842;DHT22;3966;51.052;13.820;2022-10-31T17:23:12;14.90;99.90
7842;DHT22;3966;51.052;13.820;2022-10-31T17:25:39;14.90;99.90
7842;DHT22;3966;51.052;13.820;2022-10-31T17:28:05;14.90;99.90
7842;DHT22;3966;51.052;13.820;2022-10-31T17:30:32;14.90;99.90
7842;DHT22;3966;51.052;13.820;2022-10-31T17:32:58;14.80;99.90
7842;DHT22;3966;51.052;13.820;2022-10-31T17:35:24;14.80;99.90
7842;DHT22;3966;51.052;13.820;2022-10-31T17:37:50;14.80;99.90
7842;DHT22;3966;51.052;13.820;2022-10-31T17:40:18;14.70;99.90
7842;DHT22;3966;51.052;13.820;2022-10-31T17:42:51;14.70;99.90
7842;DHT22;3966;51.052;13.820;2022-10-31T17:45:18;14.60;99.90
7842;DHT22;3966;51.052;13.820;2022-10-31T17:47:46;14.60;99.90
7842;DHT22;3966;51.052;13.820;2022-10-31T17:50:13;14.60;99.90
7842;DHT22;3966;51.052;13.820;2022-10-31T17:52:38;14.50;99.90
7842;DHT22;3966;51.052;13.820;2022-10-31T17:55:04;14.30;99.90
7842;DHT22;3966;51.052;13.820;2022-10-31T17:57:33;14.30;99.90